Time;durP1;ratioP1;P1;durP2;ratioP2;P2;SDS_P1;SDS_P2;PMS_P1;PMS_P2;Temp;Humidity;BMP_temperature;BMP_pressure;BME280_temperature;BME280_humidity;BME280_pressure;Samples;Min_cycle;Max_cycle;Signal;HPM_P1;HPM_P2
2023/04/10 00:01:12;;;;;;;12.95;6.50;;;;;;;;;;7390456;19;20002;-74
2023/04/10 00:03:37;;;;;;;9.45;5.38;;;;;;;;;;7389951;19;19998;-74
2023/04/10 00:06:03;;;;;;;14.75;6.35;;;;;;;;;;7391086;19;19990;-73
2023/04/10 00:08:28;;;;;;;12.20;6.10;;;;;;;;;;7391345;19;20001;-74
2023/04/10 00:10:54;;;;;;;14.00;7.07;;;;;;;;;;7390299;19;20312;-73
2023/04/10 00:13:20;;;;;;;12.63;6.70;;;;;;;;;;7389778;19;20017;-74
2023/04/10 00:15:45;;;;;;;14.35;6.78;;;;;;;;;;7390435;19;20480;-74
2023/04/10 00:18:11;;;;;;;11.45;6.70;;;;;;;;;;7390373;19;19995;-74
2023/04/10 00:20:36;;;;;;;13.73;6.85;;;;;;;;;;7389379;19;20034;-75
2023/04/10 00:23:01;;;;;;;13.52;7.15;;;;;;;;;;7389554;19;20106;-74
2023/04/10 00:25:27;;;;;;;14.48;6.70;;;;;;;;;;7390182;19;20005;-75
2023/04/10 00:27:53;;;;;;;12.38;6.53;;;;;;;;;;7390153;19;19991;-75
2023/04/10 00:30:19;;;;;;;11.10;6.30;;;;;;;;;;7387530;19;20486;-74
2023/04/10 00:32:45;;;;;;;11.57;6.30;;;;;;;;;;7390009;19;20512;-73
2023/04/10 00:35:10;;;;;;;12.25;6.78;;;;;;;;;;7391435;19;20002;-75
2023/04/10 00:37:36;;;;;;;14.88;7.25;;;;;;;;;;7390643;19;20002;-74
2023/04/10 00:40:01;;;;;;;11.45;6.60;;;;;;;;;;7388303;19;20028;-75
2023/04/10 00:42:27;;;;;;;13.52;6.47;;;;;;;;;;7389371;19;20684;-75
2023/04/10 00:44:52;;;;;;;13.10;6.97;;;;;;;;;;7389502;19;19994;-75
2023/04/10 00:47:18;;;;;;;12.93;6.57;;;;;;;;;;7389714;19;20384;-74
2023/04/10 00:49:44;;;;;;;12.73;7.05;;;;;;;;;;7387130;19;20006;-73
2023/04/10 00:52:09;;;;;;;14.75;8.00;;;;;;;;;;7389076;19;20378;-74
2023/04/10 00:54:35;;;;;;;13.75;7.22;;;;;;;;;;7385840;19;20003;-75
2023/04/10 00:57:02;;;;;;;13.85;7.47;;;;;;;;;;7389879;19;19991;-75
2023/04/10 00:59:27;;;;;;;19.60;7.03;;;;;;;;;;7397007;19;19995;-73
2023/04/10 01:01:53;;;;;;;12.13;6.63;;;;;;;;;;7399182;19;20002;-73
2023/04/10 01:04:19;;;;;;;14.15;7.70;;;;;;;;;;7396875;19;20005;-75
2023/04/10 01:06:47;;;;;;;12.13;6.85;;;;;;;;;;7400582;19;19995;-73
2023/04/10 01:09:32;;;;;;;12.75;7.45;;;;;;;;;;7396191;19;19990;-74
2023/04/10 01:12:23;;;;;;;12.32;7.13;;;;;;;;;;7388786;19;20018;-75
2023/04/10 01:15:11;;;;;;;10.93;6.10;;;;;;;;;;7389032;19;20488;-74
2023/04/10 01:17:44;;;;;;;12.95;7.30;;;;;;;;;;7388490;19;20463;-73
2023/04/10 01:20:18;;;;;;;13.23;7.35;;;;;;;;;;7384416;19;20073;-74
2023/04/10 01:23:11;;;;;;;16.05;7.25;;;;;;;;;;7388091;19;20421;-74
2023/04/10 01:25:45;;;;;;;14.40;7.22;;;;;;;;;;7388317;19;20023;-74
2023/04/10 01:28:39;;;;;;;13.45;7.10;;;;;;;;;;7389343;19;20003;-74
2023/04/10 01:31:07;;;;;;;14.75;6.70;;;;;;;;;;7387501;19;20002;-75
2023/04/10 01:33:44;;;;;;;12.60;7.05;;;;;;;;;;7388257;19;20011;-75
2023/04/10 01:36:10;;;;;;;12.63;6.63;;;;;;;;;;7391044;19;20086;-75
2023/04/10 01:38:41;;;;;;;12.27;6.10;;;;;;;;;;7388775;19;20031;-74
2023/04/10 01:41:07;;;;;;;13.75;7.78;;;;;;;;;;7387691;19;20022;-73
2023/04/10 01:43:33;;;;;;;13.27;6.80;;;;;;;;;;7387164;19;20065;-74
2023/04/10 01:46:01;;;;;;;11.43;6.60;;;;;;;;;;7387902;19;19998;-75
2023/04/10 01:48:27;;;;;;;13.18;7.07;;;;;;;;;;7388076;19;20013;-75
2023/04/10 01:50:54;;;;;;;14.25;7.00;;;;;;;;;;7388826;19;19999;-75
2023/04/10 01:53:20;;;;;;;12.50;7.47;;;;;;;;;;7386272;19;20075;-75
2023/04/10 01:55:46;;;;;;;12.88;6.63;;;;;;;;;;7387142;19;20070;-74
2023/04/10 01:58:12;;;;;;;16.13;6.95;;;;;;;;;;7387621;19;19999;-75
2023/04/10 02:00:40;;;;;;;15.32;6.90;;;;;;;;;;7384871;19;20356;-74
2023/04/10 02:03:05;;;;;;;13.13;7.00;;;;;;;;;;7386389;19;20329;-76
2023/04/10 02:05:45;;;;;;;13.50;7.18;;;;;;;;;;7385390;19;20001;-74
2023/04/10 02:08:36;;;;;;;11.80;6.97;;;;;;;;;;7385674;19;20010;-74
2023/04/10 02:11:14;;;;;;;16.60;6.72;;;;;;;;;;7385441;19;20002;-74
2023/04/10 02:13:40;;;;;;;14.80;7.40;;;;;;;;;;7385502;19;19999;-74
2023/04/10 02:16:10;;;;;;;14.18;7.68;;;;;;;;;;7386460;19;20468;-74
2023/04/10 02:18:37;;;;;;;13.48;7.55;;;;;;;;;;7388236;19;20144;-73
2023/04/10 02:21:03;;;;;;;17.40;7.72;;;;;;;;;;7386101;19;20394;-73
2023/04/10 02:23:29;;;;;;;16.40;8.27;;;;;;;;;;7385486;19;19995;-73
2023/04/10 02:25:57;;;;;;;12.43;7.13;;;;;;;;;;7386021;19;19994;-74
2023/04/10 02:28:22;;;;;;;14.05;7.55;;;;;;;;;;7384309;19;20029;-74
2023/04/10 02:30:48;;;;;;;14.80;7.25;;;;;;;;;;7384906;19;20415;-73
2023/04/10 02:33:13;;;;;;;14.10;7.78;;;;;;;;;;7385357;19;19998;-75
2023/04/10 02:35:38;;;;;;;13.00;6.97;;;;;;;;;;7386970;19;20019;-75
2023/04/10 02:38:04;;;;;;;15.68;7.95;;;;;;;;;;7387460;19;20495;-74
2023/04/10 02:40:29;;;;;;;15.23;7.90;;;;;;;;;;7383413;19;20027;-74
2023/04/10 02:42:55;;;;;;;16.10;7.88;;;;;;;;;;7385350;19;20018;-74
2023/04/10 02:45:20;;;;;;;14.70;8.18;;;;;;;;;;7384177;19;20003;-74
2023/04/10 02:47:45;;;;;;;14.43;7.95;;;;;;;;;;7386297;19;20572;-74
2023/04/10 02:50:10;;;;;;;13.00;7.18;;;;;;;;;;7387366;19;20471;-74
2023/04/10 02:52:36;;;;;;;15.00;7.28;;;;;;;;;;7396302;19;20494;-73
2023/04/10 02:55:01;;;;;;;18.75;8.48;;;;;;;;;;7398336;19;20412;-73
2023/04/10 02:57:27;;;;;;;12.80;7.82;;;;;;;;;;7394400;19;20002;-73
2023/04/10 02:59:53;;;;;;;14.25;7.68;;;;;;;;;;7385922;19;20549;-75
2023/04/10 03:02:19;;;;;;;15.18;7.63;;;;;;;;;;7385740;19;20070;-74
2023/04/10 03:04:44;;;;;;;13.80;8.18;;;;;;;;;;7386418;19;20456;-74
2023/04/10 03:07:09;;;;;;;16.40;8.07;;;;;;;;;;7386104;19;20484;-73
2023/04/10 03:09:35;;;;;;;17.02;8.55;;;;;;;;;;7383815;19;19994;-75
2023/04/10 03:12:01;;;;;;;16.25;8.25;;;;;;;;;;7385446;19;19995;-75
2023/04/10 03:14:27;;;;;;;13.55;7.35;;;;;;;;;;7384824;19;20040;-74
2023/04/10 03:16:52;;;;;;;14.90;8.10;;;;;;;;;;7385652;19;20522;-75
2023/04/10 03:19:17;;;;;;;16.48;7.85;;;;;;;;;;7390312;19;19999;-75
2023/04/10 03:21:44;;;;;;;13.52;7.60;;;;;;;;;;7392727;19;20023;-75
2023/04/10 03:24:10;;;;;;;15.93;9.50;;;;;;;;;;7395219;19;20003;-75
2023/04/10 03:26:35;;;;;;;16.48;8.50;;;;;;;;;;7393112;19;20341;-74
2023/04/10 03:29:00;;;;;;;16.35;8.98;;;;;;;;;;7392884;19;20001;-75
2023/04/10 03:31:26;;;;;;;15.43;7.88;;;;;;;;;;7392282;19;20466;-74
2023/04/10 03:33:51;;;;;;;16.45;8.43;;;;;;;;;;7390948;19;20460;-75
2023/04/10 03:36:17;;;;;;;15.93;8.02;;;;;;;;;;7391108;19;20413;-75
2023/04/10 03:38:43;;;;;;;14.27;8.30;;;;;;;;;;7392227;19;19994;-74
2023/04/10 03:41:08;;;;;;;15.77;8.48;;;;;;;;;;7391366;19;20318;-74
2023/04/10 03:43:33;;;;;;;18.13;7.78;;;;;;;;;;7390970;19;20008;-75
2023/04/10 03:45:58;;;;;;;14.20;7.68;;;;;;;;;;7391760;19;20075;-75
2023/04/10 03:48:27;;;;;;;16.35;8.05;;;;;;;;;;7391298;19;20088;-75
2023/04/10 03:50:53;;;;;;;13.73;7.70;;;;;;;;;;7391239;19;20361;-74
2023/04/10 03:53:18;;;;;;;15.15;8.23;;;;;;;;;;7390775;19;20343;-74
2023/04/10 03:55:44;;;;;;;18.45;8.80;;;;;;;;;;7391540;19;19999;-73
2023/04/10 03:58:09;;;;;;;15.82;8.38;;;;;;;;;;7395418;19;20041;-75
2023/04/10 04:00:34;;;;;;;15.63;8.05;;;;;;;;;;7390444;19;19995;-75
2023/04/10 04:03:01;;;;;;;15.30;8.05;;;;;;;;;;7389457;19;19991;-69
2023/04/10 04:05:26;;;;;;;15.38;8.43;;;;;;;;;;7389694;19;19998;-68
2023/04/10 04:07:52;;;;;;;16.20;8.40;;;;;;;;;;7389608;19;20040;-68
2023/04/10 04:10:17;;;;;;;15.48;8.63;;;;;;;;;;7387342;19;20006;-67
2023/04/10 04:12:42;;;;;;;14.30;8.20;;;;;;;;;;7391361;19;19999;-68
2023/04/10 04:15:08;;;;;;;17.08;8.23;;;;;;;;;;7390148;19;20019;-69
2023/04/10 04:17:34;;;;;;;14.32;7.93;;;;;;;;;;7390036;19;20070;-67
2023/04/10 04:19:59;;;;;;;14.05;7.70;;;;;;;;;;7388541;19;20014;-67
2023/04/10 04:22:24;;;;;;;15.80;7.55;;;;;;;;;;7390081;19;20464;-68
2023/04/10 04:24:51;;;;;;;14.30;7.88;;;;;;;;;;7387124;19;20131;-68
2023/04/10 04:27:16;;;;;;;16.75;8.27;;;;;;;;;;7390391;19;19998;-67
2023/04/10 04:29:41;;;;;;;14.88;7.97;;;;;;;;;;7387591;19;19994;-67
2023/04/10 04:32:07;;;;;;;15.63;8.10;;;;;;;;;;7387763;19;20009;-67
2023/04/10 04:34:32;;;;;;;15.32;8.18;;;;;;;;;;7388516;19;19995;-68
2023/04/10 04:36:57;;;;;;;13.90;7.82;;;;;;;;;;7388049;19;20003;-68
2023/04/10 04:39:23;;;;;;;14.90;8.13;;;;;;;;;;7388577;19;20026;-68
2023/04/10 04:41:48;;;;;;;15.45;8.30;;;;;;;;;;7389248;19;20045;-67
2023/04/10 04:44:14;;;;;;;14.52;8.48;;;;;;;;;;7387745;19;20006;-68
2023/04/10 04:46:39;;;;;;;14.63;7.93;;;;;;;;;;7389233;19;20467;-68
2023/04/10 04:49:05;;;;;;;14.93;7.85;;;;;;;;;;7389224;19;20419;-67
2023/04/10 04:51:30;;;;;;;13.68;8.02;;;;;;;;;;7389071;19;19998;-69
2023/04/10 04:53:55;;;;;;;15.23;7.72;;;;;;;;;;7392210;19;20324;-68
2023/04/10 04:56:20;;;;;;;21.35;8.70;;;;;;;;;;7389101;19;20005;-68
2023/04/10 04:58:46;;;;;;;15.95;8.15;;;;;;;;;;7388928;19;19998;-68
2023/04/10 05:01:11;;;;;;;15.75;8.55;;;;;;;;;;7387996;19;20026;-68
2023/04/10 05:03:37;;;;;;;14.32;8.15;;;;;;;;;;7388185;19;20337;-69
2023/04/10 05:06:02;;;;;;;14.60;7.97;;;;;;;;;;7389147;19;20460;-68
2023/04/10 05:08:27;;;;;;;13.95;8.00;;;;;;;;;;7389362;19;19999;-68
2023/04/10 05:10:53;;;;;;;13.68;8.45;;;;;;;;;;7388105;19;20439;-68
2023/04/10 05:13:18;;;;;;;13.32;7.85;;;;;;;;;;7388455;19;20326;-68
2023/04/10 05:15:44;;;;;;;14.13;7.55;;;;;;;;;;7389078;19;20655;-68
2023/04/10 05:18:10;;;;;;;13.77;7.88;;;;;;;;;;7388932;19;20518;-69
2023/04/10 05:20:36;;;;;;;15.40;8.75;;;;;;;;;;7386582;19;20000;-69
2023/04/10 05:23:01;;;;;;;13.40;8.15;;;;;;;;;;7386887;19;20015;-67
2023/04/10 05:25:27;;;;;;;13.88;7.95;;;;;;;;;;7388193;19;20020;-69
2023/04/10 05:27:52;;;;;;;14.57;8.65;;;;;;;;;;7390681;19;19995;-67
2023/04/10 05:30:18;;;;;;;14.95;7.28;;;;;;;;;;7386918;19;20498;-68
2023/04/10 05:32:44;;;;;;;16.00;8.05;;;;;;;;;;7386419;19;20002;-68
2023/04/10 05:35:10;;;;;;;11.90;7.43;;;;;;;;;;7387574;19;19995;-67
2023/04/10 05:37:35;;;;;;;16.13;8.35;;;;;;;;;;7386772;19;19995;-68
2023/04/10 05:40:01;;;;;;;15.35;8.45;;;;;;;;;;7391317;19;20006;-69
2023/04/10 05:42:26;;;;;;;14.07;8.00;;;;;;;;;;7391699;19;20002;-68
2023/04/10 05:44:52;;;;;;;16.90;8.88;;;;;;;;;;7384900;19;19990;-68
2023/04/10 05:47:17;;;;;;;16.60;8.13;;;;;;;;;;7391456;19;20016;-71
2023/04/10 05:49:42;;;;;;;16.42;8.15;;;;;;;;;;7390978;19;20015;-68
2023/04/10 05:52:08;;;;;;;13.30;7.97;;;;;;;;;;7387741;19;19998;-68
2023/04/10 05:54:33;;;;;;;14.93;7.90;;;;;;;;;;7385958;19;20009;-69
2023/04/10 05:56:59;;;;;;;14.93;8.20;;;;;;;;;;7384679;19;19999;-68
2023/04/10 05:59:24;;;;;;;14.40;8.02;;;;;;;;;;7387585;19;20444;-68
2023/04/10 06:01:49;;;;;;;14.63;8.10;;;;;;;;;;7389254;19;19995;-69
2023/04/10 06:04:20;;;;;;;15.45;8.38;;;;;;;;;;7388761;19;20440;-68
2023/04/10 06:06:45;;;;;;;13.07;7.60;;;;;;;;;;7389634;19;20340;-68
2023/04/10 06:09:11;;;;;;;12.82;7.90;;;;;;;;;;7390400;19;20002;-68
2023/04/10 06:11:36;;;;;;;14.23;8.25;;;;;;;;;;7389764;19;20005;-69
2023/04/10 06:14:01;;;;;;;12.65;7.32;;;;;;;;;;7385738;19;20032;-71
2023/04/10 06:16:27;;;;;;;12.70;8.10;;;;;;;;;;7386921;19;20456;-69
2023/04/10 06:18:53;;;;;;;13.82;7.88;;;;;;;;;;7385406;19;20018;-69
2023/04/10 06:21:18;;;;;;;12.60;7.90;;;;;;;;;;7386989;19;20023;-68
2023/04/10 06:23:43;;;;;;;12.70;7.85;;;;;;;;;;7376837;19;20018;-68
2023/04/10 06:26:09;;;;;;;12.25;8.10;;;;;;;;;;7382358;19;20086;-68
2023/04/10 06:28:34;;;;;;;14.65;8.13;;;;;;;;;;7383495;19;20010;-68
2023/04/10 06:31:02;;;;;;;13.90;8.13;;;;;;;;;;7381606;19;20002;-69
2023/04/10 06:33:28;;;;;;;14.25;8.52;;;;;;;;;;7383465;19;20014;-68
2023/04/10 06:35:53;;;;;;;12.93;7.63;;;;;;;;;;7382193;19;19995;-70
2023/04/10 06:38:18;;;;;;;13.63;8.15;;;;;;;;;;7379932;19;20010;-69
2023/04/10 06:40:44;;;;;;;10.93;7.63;;;;;;;;;;7379163;19;20423;-68
2023/04/10 06:43:09;;;;;;;14.73;8.48;;;;;;;;;;7379673;19;20013;-69
2023/04/10 06:45:35;;;;;;;14.30;8.10;;;;;;;;;;7382201;19;20406;-69
2023/04/10 06:48:00;;;;;;;12.23;7.85;;;;;;;;;;7381726;19;20020;-69
2023/04/10 06:50:25;;;;;;;10.70;6.78;;;;;;;;;;7379993;19;20099;-69
2023/04/10 06:52:54;;;;;;;10.35;7.00;;;;;;;;;;7382528;19;20010;-68
2023/04/10 06:55:19;;;;;;;10.07;6.15;;;;;;;;;;7388481;19;20614;-75
2023/04/10 06:57:45;;;;;;;14.15;7.25;;;;;;;;;;7393153;19;20010;-72
2023/04/10 07:00:11;;;;;;;10.43;6.93;;;;;;;;;;7384723;19;20348;-72
2023/04/10 07:02:36;;;;;;;13.13;6.65;;;;;;;;;;7392731;19;19999;-76
2023/04/10 07:05:01;;;;;;;11.25;7.40;;;;;;;;;;7384155;19;20078;-66
2023/04/10 07:07:28;;;;;;;12.32;6.43;;;;;;;;;;7391193;19;20739;-66
2023/04/10 07:09:53;;;;;;;10.98;6.90;;;;;;;;;;7388869;19;20006;-66
2023/04/10 07:12:18;;;;;;;11.68;6.43;;;;;;;;;;7389953;19;20006;-66
2023/04/10 07:14:44;;;;;;;9.75;6.05;;;;;;;;;;7385966;19;20420;-67
2023/04/10 07:17:09;;;;;;;10.60;6.90;;;;;;;;;;7391868;19;20007;-65
2023/04/10 07:19:36;;;;;;;10.27;6.28;;;;;;;;;;7390868;19;19995;-65
2023/04/10 07:22:01;;;;;;;11.25;6.63;;;;;;;;;;7389647;19;19995;-68
2023/04/10 07:24:27;;;;;;;11.05;6.78;;;;;;;;;;7387293;19;20443;-66
2023/04/10 07:26:52;;;;;;;11.32;7.10;;;;;;;;;;7391271;19;19991;-68
2023/04/10 07:29:17;;;;;;;10.38;6.85;;;;;;;;;;7389665;19;20376;-66
2023/04/10 07:31:43;;;;;;;10.85;6.70;;;;;;;;;;7389695;19;20022;-66
2023/04/10 07:34:10;;;;;;;9.30;6.28;;;;;;;;;;7393593;19;20022;-66
2023/04/10 07:36:35;;;;;;;10.35;6.35;;;;;;;;;;7391362;19;20003;-67
2023/04/10 07:39:01;;;;;;;9.65;6.32;;;;;;;;;;7390484;19;20034;-67
2023/04/10 07:41:26;;;;;;;9.60;5.97;;;;;;;;;;7388997;19;19998;-67
2023/04/10 07:43:52;;;;;;;8.52;5.68;;;;;;;;;;7389213;19;20380;-67
2023/04/10 07:46:17;;;;;;;8.88;5.75;;;;;;;;;;7391091;19;20001;-67
2023/04/10 07:48:43;;;;;;;9.27;5.65;;;;;;;;;;7393905;19;19990;-67
2023/04/10 07:51:09;;;;;;;8.45;5.97;;;;;;;;;;7375703;19;20027;-66
2023/04/10 07:53:35;;;;;;;9.45;5.85;;;;;;;;;;7388561;19;20010;-67
2023/04/10 07:56:01;;;;;;;9.45;6.15;;;;;;;;;;7386426;19;20337;-67
2023/04/10 07:58:26;;;;;;;9.98;5.72;;;;;;;;;;7389377;19;20003;-68
2023/04/10 08:00:51;;;;;;;9.18;6.13;;;;;;;;;;7381867;19;20006;-66
2023/04/10 08:03:17;;;;;;;9.35;5.35;;;;;;;;;;7388012;19;20006;-68
2023/04/10 08:05:42;;;;;;;10.57;5.95;;;;;;;;;;7382627;19;20037;-67
2023/04/10 08:08:07;;;;;;;9.60;5.80;;;;;;;;;;7388006;19;20002;-69
2023/04/10 08:10:36;;;;;;;9.93;5.90;;;;;;;;;;7388383;19;20013;-68
2023/04/10 08:13:02;;;;;;;15.35;5.63;;;;;;;;;;7388299;19;20047;-67
2023/04/10 08:15:27;;;;;;;9.75;5.82;;;;;;;;;;7389617;19;20195;-68
2023/04/10 08:17:52;;;;;;;8.82;5.47;;;;;;;;;;7386829;19;20336;-68
2023/04/10 08:20:18;;;;;;;8.57;5.43;;;;;;;;;;7384621;19;20557;-68
2023/04/10 08:22:43;;;;;;;7.60;5.13;;;;;;;;;;7385164;19;20007;-67
2023/04/10 08:25:09;;;;;;;8.65;5.43;;;;;;;;;;7386765;19;20013;-68
2023/04/10 08:27:34;;;;;;;8.40;5.82;;;;;;;;;;7387104;19;20009;-69
2023/04/10 08:29:59;;;;;;;7.53;4.85;;;;;;;;;;7385745;19;20007;-67
2023/04/10 08:32:25;;;;;;;9.77;5.28;;;;;;;;;;7384682;19;20078;-68
2023/04/10 08:34:51;;;;;;;9.02;5.22;;;;;;;;;;7383615;19;20118;-67
2023/04/10 08:37:18;;;;;;;8.52;5.60;;;;;;;;;;7388754;19;20500;-68
2023/04/10 08:39:43;;;;;;;8.57;5.65;;;;;;;;;;7385790;19;20037;-67
2023/04/10 08:42:09;;;;;;;10.00;5.70;;;;;;;;;;7386618;19;20039;-67
2023/04/10 08:44:35;;;;;;;9.35;6.28;;;;;;;;;;7387326;19;20011;-68
2023/04/10 08:47:01;;;;;;;8.50;5.68;;;;;;;;;;7387005;19;20013;-68
2023/04/10 08:49:55;;;;;;;8.07;5.72;;;;;;;;;;7388433;19;20837;-67
2023/04/10 08:52:24;;;;;;;8.38;5.32;;;;;;;;;;7387489;19;20017;-68
2023/04/10 08:54:57;;;;;;;8.43;5.80;;;;;;;;;;7385131;19;20062;-68
2023/04/10 08:57:25;;;;;;;8.73;5.93;;;;;;;;;;7387608;19;20092;-67
2023/04/10 08:59:51;;;;;;;8.88;5.93;;;;;;;;;;7386327;19;20030;-67
2023/04/10 09:02:17;;;;;;;9.35;5.93;;;;;;;;;;7386714;19;20374;-67
2023/04/10 09:04:50;;;;;;;8.57;5.63;;;;;;;;;;7383019;19;20006;-68
2023/04/10 09:07:16;;;;;;;8.63;5.72;;;;;;;;;;7388185;19;20017;-69
2023/04/10 09:09:42;;;;;;;8.15;5.43;;;;;;;;;;7382546;19;20006;-67
2023/04/10 09:12:07;;;;;;;8.45;5.63;;;;;;;;;;7387342;19;19995;-68
2023/04/10 09:14:35;;;;;;;7.53;5.40;;;;;;;;;;7384108;19;20336;-67
2023/04/10 09:17:20;;;;;;;12.77;5.65;;;;;;;;;;7382172;19;20090;-67
2023/04/10 09:19:51;;;;;;;9.13;5.50;;;;;;;;;;7383429;19;20008;-68
2023/04/10 09:22:18;;;;;;;10.73;6.05;;;;;;;;;;7380033;19;20009;-68
2023/04/10 09:24:45;;;;;;;9.73;5.25;;;;;;;;;;7378300;19;20044;-67
2023/04/10 09:27:27;;;;;;;8.50;5.38;;;;;;;;;;7383238;19;20010;-68
2023/04/10 09:29:52;;;;;;;8.65;5.78;;;;;;;;;;7380345;19;20420;-67
2023/04/10 09:32:43;;;;;;;8.05;5.13;;;;;;;;;;7383786;19;20091;-67
2023/04/10 09:35:10;;;;;;;9.38;5.47;;;;;;;;;;7383525;19;20010;-67
2023/04/10 09:37:37;;;;;;;8.70;5.22;;;;;;;;;;7386487;19;20002;-68
2023/04/10 09:40:04;;;;;;;8.18;5.30;;;;;;;;;;7382142;19;20031;-67
2023/04/10 09:42:35;;;;;;;8.50;5.47;;;;;;;;;;7386097;19;20065;-68
2023/04/10 09:45:01;;;;;;;10.45;6.03;;;;;;;;;;7385133;19;20006;-68
2023/04/10 09:47:27;;;;;;;8.75;5.55;;;;;;;;;;7386149;19;20008;-67
2023/04/10 09:49:54;;;;;;;7.47;4.88;;;;;;;;;;7383840;19;20545;-66
2023/04/10 09:52:21;;;;;;;8.13;5.07;;;;;;;;;;7384511;19;20010;-66
2023/04/10 09:54:46;;;;;;;8.20;5.05;;;;;;;;;;7382211;19;20081;-66
2023/04/10 10:00:05;;;;;;;7.60;4.60;;;;;;;;;;7381601;19;20109;-76
2023/04/10 10:02:35;;;;;;;8.30;5.38;;;;;;;;;;7380579;19;20086;-68
2023/04/10 10:05:03;;;;;;;7.97;4.80;;;;;;;;;;7367499;19;19998;-67
2023/04/10 10:07:29;;;;;;;7.00;4.53;;;;;;;;;;7372068;19;20255;-67
2023/04/10 10:09:56;;;;;;;8.65;4.88;;;;;;;;;;7373414;19;20001;-68
2023/04/10 10:12:27;;;;;;;8.02;5.38;;;;;;;;;;7371738;19;20017;-68
2023/04/10 10:15:26;;;;;;;7.80;5.22;;;;;;;;;;7379436;19;20002;-68
2023/04/10 10:18:10;;;;;;;7.03;4.50;;;;;;;;;;7378863;19;20466;-68
2023/04/10 10:20:38;;;;;;;8.25;4.80;;;;;;;;;;7381098;19;19999;-67
2023/04/10 10:23:03;;;;;;;6.90;4.47;;;;;;;;;;7384139;19;20499;-67
2023/04/10 10:25:30;;;;;;;9.38;4.55;;;;;;;;;;7386914;19;19998;-68
2023/04/10 10:28:01;;;;;;;7.15;4.55;;;;;;;;;;7384946;19;19999;-68
2023/04/10 10:30:27;;;;;;;9.38;4.25;;;;;;;;;;7385641;19;20017;-68
2023/04/10 10:32:52;;;;;;;7.10;4.43;;;;;;;;;;7377967;19;20484;-69
2023/04/10 10:35:18;;;;;;;5.15;3.25;;;;;;;;;;7381191;19;20010;-68
2023/04/10 10:37:44;;;;;;;7.20;3.80;;;;;;;;;;7380664;19;19999;-68
2023/04/10 10:40:26;;;;;;;6.82;3.80;;;;;;;;;;7380105;19;20052;-68
2023/04/10 10:43:05;;;;;;;6.38;3.67;;;;;;;;;;7379467;19;20257;-67
2023/04/10 10:45:39;;;;;;;6.38;4.18;;;;;;;;;;7381066;19;20541;-68
2023/04/10 10:48:06;;;;;;;6.10;4.13;;;;;;;;;;7385568;19;20062;-69
2023/04/10 10:50:57;;;;;;;6.95;3.88;;;;;;;;;;7382585;19;20041;-68
2023/04/10 10:53:43;;;;;;;6.28;3.85;;;;;;;;;;7384759;19;20029;-68
2023/04/10 10:56:17;;;;;;;5.25;3.15;;;;;;;;;;7385587;19;20443;-69
2023/04/10 10:58:47;;;;;;;36.35;24.48;;;;;;;;;;7385004;19;20401;-68
2023/04/10 11:01:12;;;;;;;29.45;22.63;;;;;;;;;;7381213;19;20324;-68
2023/04/10 11:03:38;;;;;;;11.73;7.97;;;;;;;;;;7384027;19;20005;-67
2023/04/10 11:06:07;;;;;;;7.22;4.80;;;;;;;;;;7383994;19;19991;-69
2023/04/10 11:08:35;;;;;;;7.65;4.70;;;;;;;;;;7382606;19;20019;-69
2023/04/10 11:11:05;;;;;;;7.20;3.85;;;;;;;;;;7381242;19;20022;-68
2023/04/10 11:13:32;;;;;;;6.20;3.70;;;;;;;;;;7385205;19;20014;-69
2023/04/10 11:15:59;;;;;;;5.80;3.47;;;;;;;;;;7384396;19;20012;-70
2023/04/10 11:18:46;;;;;;;5.45;3.58;;;;;;;;;;7383748;19;20101;-69
2023/04/10 11:21:30;;;;;;;5.78;2.97;;;;;;;;;;7378173;19;20476;-68
2023/04/10 11:23:55;;;;;;;5.50;3.10;;;;;;;;;;7382179;19;20003;-68
2023/04/10 11:26:38;;;;;;;5.53;3.33;;;;;;;;;;7382672;19;20042;-69
2023/04/10 11:29:04;;;;;;;5.40;3.30;;;;;;;;;;7384227;19;20256;-69
2023/04/10 11:31:31;;;;;;;6.20;3.40;;;;;;;;;;7384928;19;20006;-68
2023/04/10 11:34:03;;;;;;;5.95;3.47;;;;;;;;;;7381616;19;20006;-69
2023/04/10 11:36:30;;;;;;;6.00;3.25;;;;;;;;;;7385140;19;20062;-69
2023/04/10 11:38:58;;;;;;;4.85;3.15;;;;;;;;;;7385040;19;20036;-69
2023/04/10 11:41:35;;;;;;;5.93;3.17;;;;;;;;;;7389400;19;20542;-69
2023/04/10 11:44:05;;;;;;;5.18;3.03;;;;;;;;;;7389263;19;20014;-69
2023/04/10 11:46:35;;;;;;;6.18;3.30;;;;;;;;;;7390861;19;20484;-69
2023/04/10 11:49:09;;;;;;;6.68;3.90;;;;;;;;;;7391113;19;19990;-68
2023/04/10 11:51:35;;;;;;;5.35;3.25;;;;;;;;;;7387948;19;19995;-68
2023/04/10 11:54:12;;;;;;;5.47;3.15;;;;;;;;;;7388549;19;19998;-69
2023/04/10 11:56:39;;;;;;;5.47;3.20;;;;;;;;;;7390257;19;20451;-69
2023/04/10 11:59:18;;;;;;;6.00;3.35;;;;;;;;;;7387225;19;20027;-69
2023/04/10 12:01:44;;;;;;;7.65;3.35;;;;;;;;;;7387799;19;20006;-69
2023/04/10 12:04:17;;;;;;;9.20;3.40;;;;;;;;;;7386034;19;19990;-70
2023/04/10 12:06:56;;;;;;;7.95;3.30;;;;;;;;;;7386892;19;20077;-70
2023/04/10 12:09:22;;;;;;;5.93;3.17;;;;;;;;;;7388236;19;20523;-69
2023/04/10 12:11:52;;;;;;;5.07;3.08;;;;;;;;;;7387098;19;20590;-69
2023/04/10 12:14:19;;;;;;;5.78;3.55;;;;;;;;;;7385426;19;20002;-69
2023/04/10 12:16:45;;;;;;;5.85;3.42;;;;;;;;;;7385944;19;19994;-69
2023/04/10 12:19:11;;;;;;;6.47;3.50;;;;;;;;;;7384815;19;20005;-69
2023/04/10 12:21:38;;;;;;;4.60;3.17;;;;;;;;;;7383477;19;20423;-69
2023/04/10 12:24:04;;;;;;;5.82;3.50;;;;;;;;;;7385774;19;20010;-69
2023/04/10 12:26:29;;;;;;;5.57;2.97;;;;;;;;;;7389413;19;19998;-69
2023/04/10 12:28:56;;;;;;;6.35;3.42;;;;;;;;;;7388790;19;20017;-69
2023/04/10 12:31:33;;;;;;;6.22;3.58;;;;;;;;;;7387317;19;19995;-69
2023/04/10 12:33:59;;;;;;;6.15;3.17;;;;;;;;;;7387558;19;20030;-68
2023/04/10 12:36:30;;;;;;;5.80;3.35;;;;;;;;;;7389282;19;20362;-69
2023/04/10 12:38:58;;;;;;;5.93;3.53;;;;;;;;;;7390778;19;19995;-69
2023/04/10 12:41:28;;;;;;;4.78;3.08;;;;;;;;;;7384749;19;19995;-68
2023/04/10 12:44:05;;;;;;;;;;;;;;;;;;7388239;19;19999;-69
2023/04/10 12:46:31;;;;;;;5.63;3.10;;;;;;;;;;7389038;19;19923;-69
2023/04/10 12:49:17;;;;;;;5.60;3.17;;;;;;;;;;7388687;19;20459;-69
2023/04/10 12:51:44;;;;;;;6.55;3.20;;;;;;;;;;7385211;19;20024;-69
2023/04/10 12:54:10;;;;;;;5.47;3.20;;;;;;;;;;7387227;19;20002;-68
2023/04/10 12:56:42;;;;;;;6.57;3.60;;;;;;;;;;7389122;19;20023;-69
2023/04/10 12:59:08;;;;;;;6.05;3.50;;;;;;;;;;7386953;19;20300;-69
2023/04/10 13:01:33;;;;;;;5.63;3.50;;;;;;;;;;7385038;19;19995;-69
2023/04/10 13:03:58;;;;;;;5.32;3.22;;;;;;;;;;7386927;19;20451;-69
2023/04/10 13:06:24;;;;;;;7.93;3.70;;;;;;;;;;7388027;19;20012;-70
2023/04/10 13:08:51;;;;;;;6.85;3.60;;;;;;;;;;7386124;19;20036;-70
2023/04/10 13:11:16;;;;;;;6.00;3.65;;;;;;;;;;7386737;19;20341;-69
2023/04/10 13:13:42;;;;;;;6.10;3.47;;;;;;;;;;7386461;19;19994;-70
2023/04/10 13:16:11;;;;;;;7.63;3.60;;;;;;;;;;7387552;19;20490;-71
2023/04/10 13:18:37;;;;;;;5.55;3.45;;;;;;;;;;7387461;19;20014;-70
2023/04/10 13:21:03;;;;;;;7.07;3.80;;;;;;;;;;7384744;19;20345;-71
2023/04/10 13:23:28;;;;;;;6.43;3.45;;;;;;;;;;7389370;19;20009;-69
2023/04/10 13:25:55;;;;;;;5.43;3.53;;;;;;;;;;7387350;19;20006;-70
2023/04/10 13:28:21;;;;;;;5.57;3.28;;;;;;;;;;7387617;19;20018;-69
2023/04/10 13:30:46;;;;;;;6.72;3.72;;;;;;;;;;7386311;19;19999;-69
2023/04/10 13:33:11;;;;;;;5.85;3.40;;;;;;;;;;7384061;19;19998;-69
2023/04/10 13:35:38;;;;;;;6.10;3.20;;;;;;;;;;7386715;19;20206;-69
2023/04/10 13:38:04;;;;;;;6.32;3.45;;;;;;;;;;7386656;19;20002;-68
2023/04/10 13:40:29;;;;;;;5.57;3.03;;;;;;;;;;7384098;19;19998;-71
2023/04/10 13:42:55;;;;;;;5.63;3.30;;;;;;;;;;7385775;19;19999;-70
2023/04/10 13:45:20;;;;;;;6.68;3.40;;;;;;;;;;7390347;19;19998;-69
2023/04/10 13:47:45;;;;;;;6.57;3.35;;;;;;;;;;7390108;19;19998;-69
2023/04/10 13:50:11;;;;;;;5.93;3.40;;;;;;;;;;7384768;19;20363;-69
2023/04/10 13:52:36;;;;;;;5.00;3.22;;;;;;;;;;7386002;19;20002;-70
2023/04/10 13:55:02;;;;;;;5.97;3.20;;;;;;;;;;7384477;19;20463;-69
2023/04/10 13:57:27;;;;;;;4.70;2.97;;;;;;;;;;7386752;19;20002;-69
2023/04/10 13:59:52;;;;;;;6.05;3.17;;;;;;;;;;7385160;19;20018;-70
2023/04/10 14:02:18;;;;;;;5.80;3.47;;;;;;;;;;7383743;19;20005;-69
2023/04/10 14:04:44;;;;;;;5.55;3.17;;;;;;;;;;7384732;19;20001;-69
2023/04/10 14:07:10;;;;;;;6.97;3.15;;;;;;;;;;7385286;19;20094;-80
2023/04/10 14:09:36;;;;;;;5.10;2.80;;;;;;;;;;7381127;19;20018;-79
2023/04/10 14:12:02;;;;;;;5.63;3.10;;;;;;;;;;7375021;19;20006;-66
2023/04/10 14:14:29;;;;;;;5.47;2.97;;;;;;;;;;7382513;19;20335;-68
2023/04/10 14:16:55;;;;;;;5.57;3.17;;;;;;;;;;7382139;19;20010;-68
2023/04/10 14:19:20;;;;;;;6.15;3.28;;;;;;;;;;7381840;19;20002;-67
2023/04/10 14:21:46;;;;;;;5.47;3.10;;;;;;;;;;7381330;19;20019;-66
2023/04/10 14:24:11;;;;;;;6.15;3.03;;;;;;;;;;7381955;19;20476;-68
2023/04/10 14:26:37;;;;;;;5.53;3.30;;;;;;;;;;7382869;19;20057;-69
2023/04/10 14:29:02;;;;;;;4.70;2.72;;;;;;;;;;7382679;19;20006;-68
2023/04/10 14:31:28;;;;;;;5.63;3.17;;;;;;;;;;7381032;19;20017;-68
2023/04/10 14:33:53;;;;;;;6.57;3.17;;;;;;;;;;7381933;19;19994;-68
2023/04/10 14:36:18;;;;;;;5.32;3.25;;;;;;;;;;7383177;19;19995;-68
2023/04/10 14:38:44;;;;;;;6.60;3.00;;;;;;;;;;7383127;19;20479;-69
2023/04/10 14:41:10;;;;;;;4.70;2.58;;;;;;;;;;7380978;19;20007;-68